Terminal Aerodrome Forecast
Issued by NWS

Home | Current Version | Previous Version | Text Only | Print | Product List | Glossary On
Versions: 1 2 3 4 5 6 7 8 9 10 11 12 13 14
000
FTUS43 KABR 062300
TAFMBG
TAF
KMBG 062336Z 0700/0724 19006KT P6SM BKN100
     FM070200 29014KT P6SM SCT100
     FM070900 32015KT P6SM OVC020
     FM071600 29010KT P6SM SCT035=

USA.gov is the U.S. government's official web portal to all federal, state and local government web resources and services.